createdAt,value
2023-04-05T00:03:47.980Z,64.20
2023-04-05T00:07:15.014Z,67.50
2023-04-05T00:10:43.087Z,62.40
2023-04-05T00:14:10.612Z,61.20
2023-04-05T00:17:37.173Z,68.60
2023-04-05T00:21:04.170Z,68.20
2023-04-05T00:24:31.234Z,106.90
2023-04-05T00:27:58.140Z,98.00
2023-04-05T00:31:25.634Z,60.50
2023-04-05T00:34:52.668Z,57.00
2023-04-05T00:38:19.410Z,56.40
2023-04-05T00:41:48.597Z,66.50
2023-04-05T00:45:16.693Z,56.60
2023-04-05T00:48:44.743Z,57.00
2023-04-05T00:52:13.007Z,49.60
2023-04-05T00:55:40.092Z,51.40
2023-04-05T00:59:07.353Z,65.40
2023-04-05T01:02:39.788Z,67.80
2023-04-05T01:06:19.969Z,60.50
2023-04-05T01:09:59.571Z,58.00
2023-04-05T01:13:27.911Z,59.10
2023-04-05T01:16:58.505Z,63.60
2023-04-05T01:20:28.611Z,80.20
2023-04-05T01:24:10.123Z,76.50
2023-04-05T01:27:57.591Z,62.90
2023-04-05T01:31:34.210Z,59.40
2023-04-05T01:35:08.002Z,55.30
2023-04-05T01:38:39.693Z,52.10
2023-04-05T01:42:07.182Z,52.10
2023-04-05T01:45:34.677Z,56.20
2023-04-05T01:49:01.340Z,46.00
2023-04-05T01:52:30.952Z,48.00
2023-04-05T01:56:01.245Z,45.70
2023-04-05T01:59:28.395Z,52.80
2023-04-05T02:02:55.593Z,57.30
2023-04-05T02:06:22.778Z,61.60
2023-04-05T02:09:49.307Z,55.50
2023-04-05T02:13:16.341Z,56.80
2023-04-05T02:16:43.460Z,55.90
2023-04-05T02:20:14.845Z,52.70
2023-04-05T02:23:42.113Z,63.90
2023-04-05T02:27:09.059Z,52.30
2023-04-05T02:30:36.396Z,43.60
2023-04-05T02:34:03.257Z,45.80
2023-04-05T02:37:31.994Z,46.40
2023-04-05T02:40:59.002Z,44.20
2023-04-05T02:44:26.559Z,45.90
2023-04-05T02:47:54.203Z,40.80
2023-04-05T02:51:21.567Z,40.20
2023-04-05T02:54:48.853Z,46.00
2023-04-05T02:58:19.177Z,49.70
2023-04-05T03:01:47.685Z,42.30
2023-04-05T03:05:23.072Z,45.70
2023-04-05T03:08:52.319Z,41.60
2023-04-05T03:12:24.292Z,46.90
2023-04-05T03:15:54.697Z,45.30
2023-04-05T03:19:22.882Z,52.30
2023-04-05T03:22:51.391Z,38.70
2023-04-05T03:26:18.048Z,48.20
2023-04-05T03:29:49.398Z,45.10
2023-04-05T03:33:18.236Z,47.70
2023-04-05T03:36:50.275Z,45.30
2023-04-05T03:40:37.235Z,44.50
2023-04-05T03:44:08.226Z,44.80
2023-04-05T03:47:35.203Z,41.40
2023-04-05T03:51:04.219Z,41.80
2023-04-05T03:54:31.201Z,40.90
2023-04-05T03:58:01.266Z,40.30
2023-04-05T04:01:32.057Z,37.60
2023-04-05T04:04:58.879Z,37.60
2023-04-05T04:08:26.666Z,40.90
2023-04-05T04:11:54.106Z,34.80
2023-04-05T04:15:22.220Z,37.50
2023-04-05T04:19:07.935Z,33.10
2023-04-05T04:23:00.984Z,32.20
2023-04-05T04:26:54.858Z,33.80
2023-04-05T04:30:30.309Z,32.60
2023-04-05T04:34:30.814Z,30.00
2023-04-05T04:38:20.903Z,30.70
2023-04-05T04:42:12.279Z,39.50
2023-04-05T04:46:00.503Z,27.70
2023-04-05T04:49:38.949Z,27.30
2023-04-05T04:53:05.848Z,22.10
2023-04-05T04:56:32.970Z,20.60
2023-04-05T05:00:00.471Z,21.60
2023-04-05T05:03:27.235Z,20.20
2023-04-05T05:06:56.407Z,16.80
2023-04-05T05:10:23.892Z,14.50
2023-04-05T05:13:53.442Z,16.50
2023-04-05T05:17:27.042Z,16.30
2023-04-05T05:20:56.419Z,14.50
2023-04-05T05:24:26.708Z,27.70
2023-04-05T05:27:54.101Z,16.70
2023-04-05T05:31:22.604Z,13.20
2023-04-05T05:34:49.006Z,13.40
2023-04-05T05:38:17.692Z,18.40
2023-04-05T05:41:48.192Z,11.00
2023-04-05T05:45:16.053Z,9.50
2023-04-05T05:48:43.162Z,12.30
2023-04-05T05:52:10.354Z,14.70
2023-04-05T05:55:38.301Z,13.90
2023-04-05T05:59:05.458Z,11.10
2023-04-05T06:02:33.234Z,12.00
2023-04-05T06:06:03.444Z,13.90
2023-04-05T06:09:34.146Z,12.60
2023-04-05T06:13:01.755Z,17.20
2023-04-05T06:16:32.546Z,18.30
2023-04-05T06:20:08.570Z,12.10
2023-04-05T06:23:35.526Z,15.80
2023-04-05T06:27:02.792Z,10.80
2023-04-05T06:30:31.730Z,12.40
2023-04-05T06:33:59.449Z,13.80
2023-04-05T06:37:26.728Z,12.80
2023-04-05T06:40:53.475Z,16.00
2023-04-05T06:44:20.564Z,13.90
2023-04-05T06:47:48.347Z,10.90
2023-04-05T06:51:16.849Z,11.50
2023-04-05T06:54:43.462Z,12.60
2023-04-05T06:58:10.089Z,13.00
2023-04-05T07:01:37.400Z,10.20
2023-04-05T07:05:06.260Z,7.00
2023-04-05T07:08:34.401Z,11.00
2023-04-05T07:12:02.146Z,8.90
2023-04-05T07:15:29.955Z,8.30
2023-04-05T07:18:59.011Z,8.40
2023-04-05T07:22:26.077Z,6.20
2023-04-05T07:25:52.478Z,5.70
2023-04-05T07:29:19.186Z,8.30
2023-04-05T07:32:46.131Z,4.70
2023-04-05T07:36:17.696Z,5.50
2023-04-05T07:39:44.572Z,7.70
2023-04-05T07:43:11.763Z,2.40
2023-04-05T07:46:39.758Z,5.60
2023-04-05T07:50:09.936Z,2.20
2023-04-05T07:53:37.018Z,1.30
2023-04-05T07:57:03.884Z,4.30
2023-04-05T08:00:30.763Z,3.70
2023-04-05T08:03:58.556Z,2.30
2023-04-05T08:07:26.441Z,2.60
2023-04-05T08:10:53.591Z,5.10
2023-04-05T08:14:20.659Z,5.20
2023-04-05T08:17:48.154Z,3.30
2023-04-05T08:21:16.625Z,5.50
2023-04-05T08:24:43.442Z,3.10
2023-04-05T08:28:10.442Z,3.30
2023-04-05T08:31:37.435Z,4.10
2023-04-05T08:35:04.064Z,5.00
2023-04-05T08:38:30.860Z,4.20
2023-04-05T08:42:13.099Z,5.30
2023-04-05T08:45:48.617Z,5.80
2023-04-05T08:49:15.592Z,4.60
2023-04-05T08:52:43.490Z,4.10
2023-04-05T08:56:14.690Z,7.00
2023-04-05T08:59:43.499Z,3.60
2023-04-05T09:03:13.723Z,4.50
2023-04-05T09:06:41.061Z,5.80
2023-04-05T09:10:10.539Z,4.70
2023-04-05T09:13:37.063Z,5.70
2023-04-05T09:17:05.552Z,5.80
2023-04-05T09:20:33.098Z,7.00
2023-04-05T09:24:01.320Z,6.80
2023-04-05T09:27:29.855Z,4.90
2023-04-05T09:30:59.080Z,9.00
2023-04-05T09:34:27.661Z,5.10
2023-04-05T09:37:56.248Z,8.00
2023-04-05T09:41:25.961Z,7.10
2023-04-05T09:44:58.479Z,3.80
2023-04-05T09:48:47.054Z,4.70
2023-04-05T09:52:25.666Z,3.60
2023-04-05T09:55:55.619Z,2.80
2023-04-05T09:59:23.248Z,4.80
2023-04-05T10:02:53.989Z,4.20
2023-04-05T10:06:22.279Z,2.80
2023-04-05T10:09:49.682Z,4.40
2023-04-05T10:13:19.445Z,2.80
2023-04-05T10:16:54.821Z,5.50
2023-04-05T10:20:23.260Z,3.30
2023-04-05T10:23:55.005Z,5.10
2023-04-05T10:27:27.832Z,2.70
2023-04-05T10:30:59.834Z,6.20
2023-04-05T10:34:41.676Z,3.70
2023-04-05T10:38:24.995Z,6.80
2023-04-05T10:42:01.975Z,4.00
2023-04-05T10:45:31.706Z,5.30
2023-04-05T10:49:12.381Z,6.70
2023-04-05T10:52:47.625Z,4.90
2023-04-05T10:56:16.994Z,4.00
2023-04-05T10:59:48.158Z,3.10
2023-04-05T11:03:55.935Z,4.10
2023-04-05T11:07:26.115Z,4.40
2023-04-05T11:10:56.544Z,3.90
2023-04-05T11:14:28.573Z,6.60
2023-04-05T11:18:10.714Z,5.60
2023-04-05T11:21:41.269Z,3.10
2023-04-05T11:25:25.527Z,4.40
2023-04-05T11:29:03.261Z,6.20
2023-04-05T11:32:43.356Z,6.70
2023-04-05T11:36:13.429Z,4.20
2023-04-05T11:39:41.806Z,7.30
2023-04-05T11:43:10.551Z,6.00
2023-04-05T11:46:37.341Z,4.40
2023-04-05T11:50:04.106Z,5.50
2023-04-05T11:53:31.052Z,5.90
2023-04-05T11:56:58.440Z,4.00
2023-04-05T12:00:26.654Z,4.90
2023-04-05T12:03:57.969Z,5.40
2023-04-05T12:07:29.736Z,5.90
2023-04-05T12:11:01.692Z,5.10
2023-04-05T12:14:29.033Z,6.00
2023-04-05T12:17:55.718Z,3.50
2023-04-05T12:21:22.702Z,6.60
2023-04-05T12:24:49.581Z,3.50
2023-04-05T12:28:16.474Z,4.50
2023-04-05T12:31:44.079Z,4.60
2023-04-05T12:35:14.224Z,6.80
2023-04-05T12:38:42.036Z,7.80
2023-04-05T12:42:09.184Z,3.80
2023-04-05T12:45:42.414Z,5.70
2023-04-05T12:49:11.791Z,6.80
2023-04-05T12:52:38.501Z,5.80
2023-04-05T12:56:11.805Z,5.50
2023-04-05T12:59:38.888Z,6.30
2023-04-05T13:03:06.023Z,6.00
2023-04-05T13:06:33.030Z,5.60
2023-04-05T13:10:00.607Z,6.60
2023-04-05T13:13:27.261Z,5.50
2023-04-05T13:16:54.073Z,3.90
2023-04-05T13:20:20.634Z,5.30
2023-04-05T13:23:48.259Z,5.10
2023-04-05T13:27:15.599Z,3.00
2023-04-05T13:30:42.428Z,6.60
2023-04-05T13:34:10.186Z,4.70
2023-04-05T13:37:37.047Z,4.70
2023-04-05T13:41:06.615Z,5.30
2023-04-05T13:44:33.546Z,4.00
2023-04-05T13:48:00.445Z,5.00
2023-04-05T13:51:31.549Z,6.70
2023-04-05T13:55:02.916Z,4.70
2023-04-05T13:58:32.428Z,5.10
2023-04-05T14:01:59.487Z,5.70
2023-04-05T14:05:27.686Z,6.00
2023-04-05T14:08:55.473Z,7.00
2023-04-05T14:12:22.293Z,4.70
2023-04-05T14:15:50.754Z,7.60
2023-04-05T14:19:18.787Z,4.80
2023-04-05T14:22:46.772Z,6.30
2023-04-05T14:26:14.120Z,8.00
2023-04-05T14:29:41.072Z,8.20
2023-04-05T14:33:08.225Z,8.10
2023-04-05T14:36:36.974Z,7.20
2023-04-05T14:40:04.294Z,10.70
2023-04-05T14:43:31.383Z,7.40
2023-04-05T14:46:58.319Z,6.90
2023-04-05T14:50:25.239Z,4.90
2023-04-05T14:53:52.916Z,8.70
2023-04-05T14:57:19.564Z,5.80
2023-04-05T15:00:46.617Z,8.10
2023-04-05T15:04:13.619Z,7.60
2023-04-05T15:07:40.216Z,8.50
2023-04-05T15:11:08.277Z,6.20
2023-04-05T15:14:34.785Z,9.60
2023-04-05T15:18:02.425Z,7.30
2023-04-05T15:21:29.361Z,5.40
2023-04-05T15:24:56.722Z,7.20
2023-04-05T15:28:24.331Z,7.70
2023-04-05T15:31:52.044Z,7.00
2023-04-05T15:35:19.155Z,9.10
2023-04-05T15:38:45.829Z,6.70
2023-04-05T15:42:12.388Z,6.30
2023-04-05T15:45:39.237Z,7.80
2023-04-05T15:49:07.168Z,7.00
2023-04-05T15:52:34.525Z,7.70
2023-04-05T15:56:01.369Z,12.40
2023-04-05T15:59:28.515Z,11.30
2023-04-05T16:03:00.791Z,7.00
2023-04-05T16:06:30.062Z,8.70
2023-04-05T16:09:57.148Z,10.50
2023-04-05T16:13:25.072Z,7.10
2023-04-05T16:16:54.230Z,13.70
2023-04-05T16:20:22.290Z,12.70
2023-04-05T16:23:48.732Z,8.60
2023-04-05T16:27:16.097Z,7.90
2023-04-05T16:30:51.338Z,8.80
2023-04-05T16:34:18.518Z,10.70
2023-04-05T16:37:45.041Z,8.60
2023-04-05T16:41:12.065Z,8.40
2023-04-05T16:44:38.857Z,8.40
2023-04-05T16:48:09.240Z,10.50
2023-04-05T16:51:38.487Z,8.70
2023-04-05T16:55:07.249Z,9.20
2023-04-05T16:58:34.660Z,10.70
2023-04-05T17:02:02.413Z,10.40
2023-04-05T17:05:29.590Z,13.90
2023-04-05T17:08:56.374Z,8.30
2023-04-05T17:12:23.088Z,12.40
2023-04-05T17:15:49.942Z,12.60
2023-04-05T17:19:17.154Z,13.40
2023-04-05T17:22:44.142Z,17.10
2023-04-05T17:26:10.796Z,14.40
2023-04-05T17:29:37.889Z,15.70
2023-04-05T17:33:04.942Z,28.30
2023-04-05T17:36:32.442Z,26.40
2023-04-05T17:40:00.017Z,33.20
2023-04-05T17:43:28.415Z,23.00
2023-04-05T17:47:05.938Z,44.20
2023-04-05T17:50:37.229Z,31.00
2023-04-05T17:54:04.988Z,28.00
2023-04-05T17:57:34.362Z,30.70
2023-04-05T18:01:02.005Z,22.30
2023-04-05T18:04:29.505Z,18.60
2023-04-05T18:07:56.480Z,16.20
2023-04-05T18:11:23.039Z,22.20
2023-04-05T18:14:52.229Z,28.20
2023-04-05T18:18:19.735Z,24.40
2023-04-05T18:21:47.393Z,23.70
2023-04-05T18:25:14.812Z,24.00
2023-04-05T18:28:42.703Z,26.50
2023-04-05T18:32:14.948Z,27.20
2023-04-05T18:35:43.632Z,27.30
2023-04-05T18:39:10.704Z,25.80
2023-04-05T18:42:37.705Z,30.00
2023-04-05T18:46:04.980Z,33.10
2023-04-05T18:49:34.469Z,44.70
2023-04-05T18:53:02.052Z,39.80
2023-04-05T18:56:30.116Z,34.60
2023-04-05T18:59:56.940Z,43.80
2023-04-05T19:03:24.162Z,31.80
2023-04-05T19:06:51.397Z,31.50
2023-04-05T19:10:18.227Z,31.40
2023-04-05T19:13:49.046Z,32.60
2023-04-05T19:17:16.101Z,34.60
2023-04-05T19:20:43.397Z,34.90
2023-04-05T19:24:13.333Z,34.60
2023-04-05T19:27:42.823Z,45.30
2023-04-05T19:31:10.853Z,38.70
2023-04-05T19:34:40.386Z,38.30
2023-04-05T19:38:08.016Z,33.20
2023-04-05T19:41:36.322Z,34.80
2023-04-05T19:45:03.116Z,41.40
2023-04-05T19:48:41.304Z,39.70
2023-04-05T19:52:10.580Z,33.50
2023-04-05T19:55:40.099Z,30.30
2023-04-05T19:59:27.383Z,26.80
2023-04-05T20:02:57.106Z,28.40
2023-04-05T20:06:25.369Z,26.20
2023-04-05T20:09:52.644Z,24.10
2023-04-05T20:13:20.155Z,24.80
2023-04-05T20:16:49.890Z,21.30
2023-04-05T20:20:18.438Z,19.40
2023-04-05T20:23:46.956Z,19.70
2023-04-05T20:27:15.859Z,19.50
2023-04-05T20:30:43.165Z,23.90
2023-04-05T20:34:13.169Z,23.10
2023-04-05T20:37:39.782Z,24.10
2023-04-05T20:41:07.374Z,18.30
2023-04-05T20:44:35.201Z,18.60
2023-04-05T20:48:02.610Z,19.60
2023-04-05T20:51:29.840Z,21.10
2023-04-05T20:54:58.118Z,24.40
2023-04-05T20:58:25.312Z,22.20
2023-04-05T21:01:52.947Z,38.50
2023-04-05T21:05:20.235Z,43.10
2023-04-05T21:08:47.155Z,39.60
2023-04-05T21:12:16.596Z,38.90
2023-04-05T21:15:45.998Z,37.50
2023-04-05T21:19:12.791Z,34.40
2023-04-05T21:22:39.503Z,30.10
2023-04-05T21:26:07.602Z,31.90
2023-04-05T21:29:35.119Z,32.20
2023-04-05T21:33:01.993Z,28.10
2023-04-05T21:36:29.449Z,26.50
2023-04-05T21:39:56.505Z,33.80
2023-04-05T21:43:30.628Z,32.00
2023-04-05T21:50:25.966Z,45.10
2023-04-05T21:53:53.208Z,45.00
2023-04-05T21:57:20.075Z,35.10
2023-04-05T22:00:47.237Z,30.20
2023-04-05T22:04:20.285Z,28.10
2023-04-05T22:07:48.614Z,30.80
2023-04-05T22:11:15.689Z,29.70
2023-04-05T22:14:42.532Z,26.90
2023-04-05T22:18:10.219Z,24.10
2023-04-05T22:21:37.219Z,26.90
2023-04-05T22:25:04.114Z,27.00
2023-04-05T22:28:33.017Z,24.40
2023-04-05T22:32:02.912Z,26.60
2023-04-05T22:35:31.974Z,29.60
2023-04-05T22:38:59.244Z,30.50
2023-04-05T22:42:26.586Z,25.10
2023-04-05T22:45:56.382Z,26.30
2023-04-05T22:49:23.333Z,21.00
2023-04-05T22:52:50.376Z,25.10
2023-04-05T22:56:21.802Z,24.50
2023-04-05T22:59:56.590Z,26.30
2023-04-05T23:03:23.519Z,26.20
2023-04-05T23:06:50.760Z,28.70
2023-04-05T23:10:18.197Z,25.40
2023-04-05T23:13:46.535Z,33.70
2023-04-05T23:17:15.621Z,32.20
2023-04-05T23:20:43.054Z,30.20
2023-04-05T23:24:11.257Z,34.00
2023-04-05T23:27:38.954Z,29.40
2023-04-05T23:31:05.908Z,36.80
2023-04-05T23:34:32.647Z,34.10
2023-04-05T23:37:59.625Z,37.00
2023-04-05T23:41:29.258Z,42.60
2023-04-05T23:44:56.534Z,59.30
2023-04-05T23:48:25.550Z,57.70
2023-04-05T23:51:52.966Z,60.00
2023-04-05T23:55:22.171Z,56.90
2023-04-05T23:58:49.508Z,39.60
